sensor_id;sensor_type;location;lat;lon;timestamp;temperature;humidity
67186;HTU21D;54116;53.518;49.398;2022-10-04T00:01:52;12.56;39.71
67186;HTU21D;54116;53.518;49.398;2022-10-04T00:04:25;12.52;40.84
67186;HTU21D;54116;53.518;49.398;2022-10-04T00:07:12;12.52;39.71
67186;HTU21D;54116;53.518;49.398;2022-10-04T00:12:34;12.50;40.21
67186;HTU21D;54116;53.518;49.398;2022-10-04T00:15:06;12.47;40.25
67186;HTU21D;54116;53.518;49.398;2022-10-04T00:17:40;12.44;40.62
67186;HTU21D;54116;53.518;49.398;2022-10-04T00:25:56;12.43;40.19
67186;HTU21D;54116;53.518;49.398;2022-10-04T00:31:21;12.42;40.04
67186;HTU21D;54116;53.518;49.398;2022-10-04T00:34:43;12.41;39.53
67186;HTU21D;54116;53.518;49.398;2022-10-04T00:36:45;12.37;39.39
67186;HTU21D;54116;53.518;49.398;2022-10-04T00:39:15;12.33;39.79
67186;HTU21D;54116;53.518;49.398;2022-10-04T00:45:12;12.25;40.38
67186;HTU21D;54116;53.518;49.398;2022-10-04T00:47:56;12.19;41.44
67186;HTU21D;54116;53.518;49.398;2022-10-04T00:52:59;12.15;40.59
67186;HTU21D;54116;53.518;49.398;2022-10-04T00:55:42;12.07;40.80
67186;HTU21D;54116;53.518;49.398;2022-10-04T00:58:21;12.06;41.24
67186;HTU21D;54116;53.518;49.398;2022-10-04T01:00:52;12.02;40.75
67186;HTU21D;54116;53.518;49.398;2022-10-04T01:03:33;12.04;41.10
67186;HTU21D;54116;53.518;49.398;2022-10-04T01:06:05;11.97;40.51
67186;HTU21D;54116;53.518;49.398;2022-10-04T01:08:39;11.96;41.35
67186;HTU21D;54116;53.518;49.398;2022-10-04T01:11:17;11.98;40.96
67186;HTU21D;54116;53.518;49.398;2022-10-04T01:13:49;11.97;41.81
67186;HTU21D;54116;53.518;49.398;2022-10-04T01:16:22;11.96;41.74
67186;HTU21D;54116;53.518;49.398;2022-10-04T01:18:51;11.94;40.94
67186;HTU21D;54116;53.518;49.398;2022-10-04T01:21:25;11.98;40.34
67186;HTU21D;54116;53.518;49.398;2022-10-04T01:29:13;11.89;40.72
67186;HTU21D;54116;53.518;49.398;2022-10-04T01:31:43;11.90;41.78
67186;HTU21D;54116;53.518;49.398;2022-10-04T01:34:35;11.85;41.29
67186;HTU21D;54116;53.518;49.398;2022-10-04T01:37:05;11.87;40.84
67186;HTU21D;54116;53.518;49.398;2022-10-04T01:39:31;11.90;41.07
67186;HTU21D;54116;53.518;49.398;2022-10-04T01:42:08;11.92;41.90
67186;HTU21D;54116;53.518;49.398;2022-10-04T01:44:50;11.84;40.97
67186;HTU21D;54116;53.518;49.398;2022-10-04T01:47:40;11.81;41.42
67186;HTU21D;54116;53.518;49.398;2022-10-04T01:50:21;11.84;41.10
67186;HTU21D;54116;53.518;49.398;2022-10-04T01:52:55;11.88;41.22
67186;HTU21D;54116;53.518;49.398;2022-10-04T01:55:33;11.87;40.88
67186;HTU21D;54116;53.518;49.398;2022-10-04T01:58:06;11.81;41.82
67186;HTU21D;54116;53.518;49.398;2022-10-04T02:00:42;11.76;41.80
67186;HTU21D;54116;53.518;49.398;2022-10-04T02:03:17;11.73;41.99
67186;HTU21D;54116;53.518;49.398;2022-10-04T02:05:50;11.71;42.72
67186;HTU21D;54116;53.518;49.398;2022-10-04T02:08:24;11.70;42.52
67186;HTU21D;54116;53.518;49.398;2022-10-04T02:10:53;11.69;41.83
67186;HTU21D;54116;53.518;49.398;2022-10-04T02:13:20;11.74;42.24
67186;HTU21D;54116;53.518;49.398;2022-10-04T02:15:48;11.70;41.84
67186;HTU21D;54116;53.518;49.398;2022-10-04T02:18:17;11.69;41.45
67186;HTU21D;54116;53.518;49.398;2022-10-04T02:20:47;11.70;42.00
67186;HTU21D;54116;53.518;49.398;2022-10-04T02:23:17;11.70;40.91
67186;HTU21D;54116;53.518;49.398;2022-10-04T02:25:45;11.75;41.87
67186;HTU21D;54116;53.518;49.398;2022-10-04T02:28:12;11.73;40.34
67186;HTU21D;54116;53.518;49.398;2022-10-04T02:30:43;11.74;41.34
67186;HTU21D;54116;53.518;49.398;2022-10-04T02:33:51;11.70;41.67
67186;HTU21D;54116;53.518;49.398;2022-10-04T02:36:18;11.63;41.04
67186;HTU21D;54116;53.518;49.398;2022-10-04T02:41:40;11.68;41.93
67186;HTU21D;54116;53.518;49.398;2022-10-04T02:44:21;11.67;41.65
67186;HTU21D;54116;53.518;49.398;2022-10-04T02:47:18;11.70;42.00
67186;HTU21D;54116;53.518;49.398;2022-10-04T02:49:54;11.68;40.65
67186;HTU21D;54116;53.518;49.398;2022-10-04T02:52:25;11.74;40.97
67186;HTU21D;54116;53.518;49.398;2022-10-04T02:55:03;11.68;41.10
67186;HTU21D;54116;53.518;49.398;2022-10-04T02:57:33;11.69;41.32
67186;HTU21D;54116;53.518;49.398;2022-10-04T03:02:38;11.72;41.23
67186;HTU21D;54116;53.518;49.398;2022-10-04T03:05:08;11.70;41.26
67186;HTU21D;54116;53.518;49.398;2022-10-04T03:07:35;11.71;42.03
67186;HTU21D;54116;53.518;49.398;2022-10-04T03:10:11;11.69;42.26
67186;HTU21D;54116;53.518;49.398;2022-10-04T03:12:40;11.63;42.15
67186;HTU21D;54116;53.518;49.398;2022-10-04T03:15:12;11.60;41.90
67186;HTU21D;54116;53.518;49.398;2022-10-04T03:17:42;11.55;42.23
67186;HTU21D;54116;53.518;49.398;2022-10-04T03:20:12;11.51;43.20
67186;HTU21D;54116;53.518;49.398;2022-10-04T03:22:44;11.51;42.40
67186;HTU21D;54116;53.518;49.398;2022-10-04T03:25:29;11.52;43.15
67186;HTU21D;54116;53.518;49.398;2022-10-04T03:28:00;11.46;42.23
67186;HTU21D;54116;53.518;49.398;2022-10-04T03:30:34;11.44;43.74
67186;HTU21D;54116;53.518;49.398;2022-10-04T03:33:01;11.44;43.59
67186;HTU21D;54116;53.518;49.398;2022-10-04T03:35:38;11.46;43.24
67186;HTU21D;54116;53.518;49.398;2022-10-04T03:38:08;11.45;43.07
67186;HTU21D;54116;53.518;49.398;2022-10-04T03:40:37;11.46;43.81
67186;HTU21D;54116;53.518;49.398;2022-10-04T03:43:08;11.44;44.21
67186;HTU21D;54116;53.518;49.398;2022-10-04T03:45:38;11.43;44.30
67186;HTU21D;54116;53.518;49.398;2022-10-04T03:48:08;11.49;42.85
67186;HTU21D;54116;53.518;49.398;2022-10-04T03:50:55;11.51;42.65
67186;HTU21D;54116;53.518;49.398;2022-10-04T03:53:36;11.51;43.25
67186;HTU21D;54116;53.518;49.398;2022-10-04T03:58:53;11.52;43.17
67186;HTU21D;54116;53.518;49.398;2022-10-04T04:04:28;11.48;43.00
67186;HTU21D;54116;53.518;49.398;2022-10-04T04:07:05;11.53;43.51
67186;HTU21D;54116;53.518;49.398;2022-10-04T04:09:37;11.56;43.14
67186;HTU21D;54116;53.518;49.398;2022-10-04T04:12:10;11.55;43.34
67186;HTU21D;54116;53.518;49.398;2022-10-04T04:14:42;11.57;43.90
67186;HTU21D;54116;53.518;49.398;2022-10-04T04:20:26;11.59;43.57
67186;HTU21D;54116;53.518;49.398;2022-10-04T04:25:44;11.59;42.21
67186;HTU21D;54116;53.518;49.398;2022-10-04T04:28:39;11.64;41.46
67186;HTU21D;54116;53.518;49.398;2022-10-04T04:33:53;11.63;42.89
67186;HTU21D;54116;53.518;49.398;2022-10-04T04:36:25;11.60;43.98
67186;HTU21D;54116;53.518;49.398;2022-10-04T04:39:04;11.61;42.54
67186;HTU21D;54116;53.518;49.398;2022-10-04T04:41:49;11.60;42.38
67186;HTU21D;54116;53.518;49.398;2022-10-04T04:44:17;11.63;43.87
67186;HTU21D;54116;53.518;49.398;2022-10-04T04:46:45;11.67;42.47
67186;HTU21D;54116;53.518;49.398;2022-10-04T04:49:14;11.69;42.46
67186;HTU21D;54116;53.518;49.398;2022-10-04T04:51:46;11.68;42.24
67186;HTU21D;54116;53.518;49.398;2022-10-04T04:54:16;11.70;41.23
67186;HTU21D;54116;53.518;49.398;2022-10-04T04:56:47;11.74;42.26
67186;HTU21D;54116;53.518;49.398;2022-10-04T04:59:15;11.73;41.96
67186;HTU21D;54116;53.518;49.398;2022-10-04T05:01:45;11.75;42.04
67186;HTU21D;54116;53.518;49.398;2022-10-04T05:06:42;11.82;41.33
67186;HTU21D;54116;53.518;49.398;2022-10-04T05:09:34;11.84;42.18
67186;HTU21D;54116;53.518;49.398;2022-10-04T05:12:16;11.81;41.93
67186;HTU21D;54116;53.518;49.398;2022-10-04T05:14:51;11.84;42.35
67186;HTU21D;54116;53.518;49.398;2022-10-04T05:17:33;11.87;42.39
67186;HTU21D;54116;53.518;49.398;2022-10-04T05:20:05;11.89;40.67
67186;HTU21D;54116;53.518;49.398;2022-10-04T05:22:34;11.93;42.50
67186;HTU21D;54116;53.518;49.398;2022-10-04T05:25:06;11.97;41.29
67186;HTU21D;54116;53.518;49.398;2022-10-04T05:27:38;12.00;40.33
67186;HTU21D;54116;53.518;49.398;2022-10-04T05:33:12;12.08;40.68
67186;HTU21D;54116;53.518;49.398;2022-10-04T05:43:48;12.02;46.30
67186;HTU21D;54116;53.518;49.398;2022-10-04T05:46:20;11.92;48.79
67186;HTU21D;54116;53.518;49.398;2022-10-04T05:48:53;11.87;48.26
67186;HTU21D;54116;53.518;49.398;2022-10-04T05:51:32;11.84;46.33
67186;HTU21D;54116;53.518;49.398;2022-10-04T05:54:04;11.89;46.32
67186;HTU21D;54116;53.518;49.398;2022-10-04T06:13:37;12.19;40.67
67186;HTU21D;54116;53.518;49.398;2022-10-04T06:24:34;12.36;39.80
67186;HTU21D;54116;53.518;49.398;2022-10-04T06:27:19;12.40;40.81
67186;HTU21D;54116;53.518;49.398;2022-10-04T06:29:57;12.40;41.51
67186;HTU21D;54116;53.518;49.398;2022-10-04T06:41:15;12.42;39.50
67186;HTU21D;54116;53.518;49.398;2022-10-04T06:44:09;12.47;39.65
67186;HTU21D;54116;53.518;49.398;2022-10-04T06:49:54;12.52;41.87
67186;HTU21D;54116;53.518;49.398;2022-10-04T06:58:40;12.46;40.92
67186;HTU21D;54116;53.518;49.398;2022-10-04T07:01:26;12.48;42.05
67186;HTU21D;54116;53.518;49.398;2022-10-04T07:07:22;12.63;41.36
67186;HTU21D;54116;53.518;49.398;2022-10-04T07:12:39;12.76;41.17
67186;HTU21D;54116;53.518;49.398;2022-10-04T07:15:24;12.81;41.15
67186;HTU21D;54116;53.518;49.398;2022-10-04T07:17:52;12.92;40.20
67186;HTU21D;54116;53.518;49.398;2022-10-04T07:20:30;13.02;40.78
67186;HTU21D;54116;53.518;49.398;2022-10-04T07:23:05;13.07;39.83
67186;HTU21D;54116;53.518;49.398;2022-10-04T07:25:44;13.08;41.37
67186;HTU21D;54116;53.518;49.398;2022-10-04T07:28:15;13.03;40.23
67186;HTU21D;54116;53.518;49.398;2022-10-04T07:33:43;13.14;40.72
67186;HTU21D;54116;53.518;49.398;2022-10-04T07:36:21;13.29;38.39
67186;HTU21D;54116;53.518;49.398;2022-10-04T07:39:44;13.43;38.70
67186;HTU21D;54116;53.518;49.398;2022-10-04T07:41:55;13.56;38.67
67186;HTU21D;54116;53.518;49.398;2022-10-04T07:46:54;13.49;39.49
67186;HTU21D;54116;53.518;49.398;2022-10-04T07:49:24;13.51;40.49
67186;HTU21D;54116;53.518;49.398;2022-10-04T07:54:58;13.55;39.63
67186;HTU21D;54116;53.518;49.398;2022-10-04T08:03:28;13.56;40.30
67186;HTU21D;54116;53.518;49.398;2022-10-04T08:05:37;13.67;39.29
67186;HTU21D;54116;53.518;49.398;2022-10-04T08:13:55;13.91;41.51
67186;HTU21D;54116;53.518;49.398;2022-10-04T08:16:36;13.86;41.38
67186;HTU21D;54116;53.518;49.398;2022-10-04T08:24:50;13.84;41.39
67186;HTU21D;54116;53.518;49.398;2022-10-04T08:30:51;13.83;41.26
67186;HTU21D;54116;53.518;49.398;2022-10-04T08:38:56;13.82;38.32
67186;HTU21D;54116;53.518;49.398;2022-10-04T08:42:15;13.81;41.51
67186;HTU21D;54116;53.518;49.398;2022-10-04T08:51:40;13.33;40.73
67186;HTU21D;54116;53.518;49.398;2022-10-04T09:00:22;13.58;38.62
67186;HTU21D;54116;53.518;49.398;2022-10-04T09:15:13;14.20;37.59
67186;HTU21D;54116;53.518;49.398;2022-10-04T09:18:18;14.24;37.46
67186;HTU21D;54116;53.518;49.398;2022-10-04T09:21:11;14.39;38.54
67186;HTU21D;54116;53.518;49.398;2022-10-04T09:26:39;14.57;34.90
67186;HTU21D;54116;53.518;49.398;2022-10-04T09:32:45;14.63;35.24
67186;HTU21D;54116;53.518;49.398;2022-10-04T09:35:39;14.70;35.60
67186;HTU21D;54116;53.518;49.398;2022-10-04T09:41:32;14.64;36.01
67186;HTU21D;54116;53.518;49.398;2022-10-04T09:50:32;14.64;35.56
67186;HTU21D;54116;53.518;49.398;2022-10-04T09:53:34;14.68;34.13
67186;HTU21D;54116;53.518;49.398;2022-10-04T09:56:17;14.78;34.93
67186;HTU21D;54116;53.518;49.398;2022-10-04T10:01:39;14.92;35.23
67186;HTU21D;54116;53.518;49.398;2022-10-04T10:52:56;14.67;37.24
67186;HTU21D;54116;53.518;49.398;2022-10-04T10:55:38;14.64;38.28
67186;HTU21D;54116;53.518;49.398;2022-10-04T10:58:22;14.66;37.16
67186;HTU21D;54116;53.518;49.398;2022-10-04T11:01:33;14.77;35.80
67186;HTU21D;54116;53.518;49.398;2022-10-04T11:09:28;14.56;37.55
67186;HTU21D;54116;53.518;49.398;2022-10-04T11:12:22;14.58;35.72
67186;HTU21D;54116;53.518;49.398;2022-10-04T11:21:44;14.71;36.15
67186;HTU21D;54116;53.518;49.398;2022-10-04T11:27:00;14.80;35.85
67186;HTU21D;54116;53.518;49.398;2022-10-04T11:39:51;14.40;38.05
67186;HTU21D;54116;53.518;49.398;2022-10-04T11:47:40;14.22;39.39
67186;HTU21D;54116;53.518;49.398;2022-10-04T12:03:57;14.26;37.69
67186;HTU21D;54116;53.518;49.398;2022-10-04T12:09:21;14.32;35.83
67186;HTU21D;54116;53.518;49.398;2022-10-04T12:32:09;14.34;36.39
67186;HTU21D;54116;53.518;49.398;2022-10-04T12:37:29;14.23;37.18
67186;HTU21D;54116;53.518;49.398;2022-10-04T13:15:25;14.08;36.14
67186;HTU21D;54116;53.518;49.398;2022-10-04T13:21:07;13.93;37.21
67186;HTU21D;54116;53.518;49.398;2022-10-04T13:31:50;13.86;36.92
67186;HTU21D;54116;53.518;49.398;2022-10-04T13:34:29;13.82;36.48
67186;HTU21D;54116;53.518;49.398;2022-10-04T13:42:47;13.67;37.79
67186;HTU21D;54116;53.518;49.398;2022-10-04T13:48:24;13.58;37.95
67186;HTU21D;54116;53.518;49.398;2022-10-04T13:51:11;13.54;38.10
67186;HTU21D;54116;53.518;49.398;2022-10-04T14:05:20;13.06;39.80
67186;HTU21D;54116;53.518;49.398;2022-10-04T14:14:06;0.00;40.77
67186;HTU21D;54116;53.518;49.398;2022-10-04T14:16:43;13.16;41.98
67186;HTU21D;54116;53.518;49.398;2022-10-04T14:23:00;13.19;39.49
67186;HTU21D;54116;53.518;49.398;2022-10-04T14:34:27;12.94;41.49
67186;HTU21D;54116;53.518;49.398;2022-10-04T14:53:59;12.61;43.11
67186;HTU21D;54116;53.518;49.398;2022-10-04T15:07:50;12.74;42.07
67186;HTU21D;54116;53.518;49.398;2022-10-04T15:10:29;12.74;40.19
67186;HTU21D;54116;53.518;49.398;2022-10-04T15:18:29;12.90;38.45
67186;HTU21D;54116;53.518;49.398;2022-10-04T15:24:21;13.03;36.15
67186;HTU21D;54116;53.518;49.398;2022-10-04T15:31:23;13.04;36.72
67186;HTU21D;54116;53.518;49.398;2022-10-04T15:33:58;13.04;36.30
67186;HTU21D;54116;53.518;49.398;2022-10-04T15:36:44;13.04;36.46
67186;HTU21D;54116;53.518;49.398;2022-10-04T15:41:44;13.00;36.09
67186;HTU21D;54116;53.518;49.398;2022-10-04T15:46:50;13.02;35.60
67186;HTU21D;54116;53.518;49.398;2022-10-04T15:56:00;12.97;35.12
67186;HTU21D;54116;53.518;49.398;2022-10-04T15:58:33;13.01;36.77
67186;HTU21D;54116;53.518;49.398;2022-10-04T16:01:24;12.93;34.40
67186;HTU21D;54116;53.518;49.398;2022-10-04T16:04:23;13.08;33.64
67186;HTU21D;54116;53.518;49.398;2022-10-04T16:12:54;13.15;34.62
67186;HTU21D;54116;53.518;49.398;2022-10-04T16:15:37;13.11;34.99
67186;HTU21D;54116;53.518;49.398;2022-10-04T16:21:03;13.01;35.56
67186;HTU21D;54116;53.518;49.398;2022-10-04T16:23:40;12.94;35.37
67186;HTU21D;54116;53.518;49.398;2022-10-04T16:31:40;13.00;36.22
67186;HTU21D;54116;53.518;49.398;2022-10-04T16:37:30;12.96;35.85
67186;HTU21D;54116;53.518;49.398;2022-10-04T16:46:08;12.95;35.75
67186;HTU21D;54116;53.518;49.398;2022-10-04T16:56:28;12.86;38.14
67186;HTU21D;54116;53.518;49.398;2022-10-04T16:59:07;12.81;37.92
67186;HTU21D;54116;53.518;49.398;2022-10-04T17:12:41;12.62;39.68
67186;HTU21D;54116;53.518;49.398;2022-10-04T17:25:43;12.40;42.39
67186;HTU21D;54116;53.518;49.398;2022-10-04T17:28:27;12.31;42.37
67186;HTU21D;54116;53.518;49.398;2022-10-04T17:31:14;12.29;42.46
67186;HTU21D;54116;53.518;49.398;2022-10-04T17:33:58;12.22;43.16
67186;HTU21D;54116;53.518;49.398;2022-10-04T17:36:43;12.17;43.70
67186;HTU21D;54116;53.518;49.398;2022-10-04T17:47:24;11.98;46.59
67186;HTU21D;54116;53.518;49.398;2022-10-04T17:50:13;11.90;46.17
67186;HTU21D;54116;53.518;49.398;2022-10-04T17:53:03;11.89;47.57
67186;HTU21D;54116;53.518;49.398;2022-10-04T17:55:57;11.85;47.76
67186;HTU21D;54116;53.518;49.398;2022-10-04T17:58:36;11.81;47.35
67186;HTU21D;54116;53.518;49.398;2022-10-04T18:01:09;11.78;49.70
67186;HTU21D;54116;53.518;49.398;2022-10-04T18:03:42;11.68;51.08
67186;HTU21D;54116;53.518;49.398;2022-10-04T18:06:29;11.47;53.32
67186;HTU21D;54116;53.518;49.398;2022-10-04T18:09:00;11.31;55.60
67186;HTU21D;54116;53.518;49.398;2022-10-04T18:17:04;10.54;63.63
67186;HTU21D;54116;53.518;49.398;2022-10-04T18:22:18;10.15;66.96
67186;HTU21D;54116;53.518;49.398;2022-10-04T18:24:46;10.10;67.63
67186;HTU21D;54116;53.518;49.398;2022-10-04T18:27:22;10.01;68.25
67186;HTU21D;54116;53.518;49.398;2022-10-04T18:30:13;9.95;68.75
67186;HTU21D;54116;53.518;49.398;2022-10-04T18:32:44;9.92;68.26
67186;HTU21D;54116;53.518;49.398;2022-10-04T18:37:51;9.86;69.79
67186;HTU21D;54116;53.518;49.398;2022-10-04T18:40:32;9.86;68.81
67186;HTU21D;54116;53.518;49.398;2022-10-04T18:43:25;9.93;69.82
67186;HTU21D;54116;53.518;49.398;2022-10-04T18:48:50;9.89;69.24
67186;HTU21D;54116;53.518;49.398;2022-10-04T18:51:40;9.86;70.00
67186;HTU21D;54116;53.518;49.398;2022-10-04T18:54:26;9.84;69.61
67186;HTU21D;54116;53.518;49.398;2022-10-04T19:03:22;9.67;71.98
67186;HTU21D;54116;53.518;49.398;2022-10-04T19:11:18;9.68;70.94
67186;HTU21D;54116;53.518;49.398;2022-10-04T19:14:00;9.70;71.64
67186;HTU21D;54116;53.518;49.398;2022-10-04T19:16:56;9.71;72.03
67186;HTU21D;54116;53.518;49.398;2022-10-04T19:19:59;9.67;71.85
67186;HTU21D;54116;53.518;49.398;2022-10-04T19:30:24;9.75;70.92
67186;HTU21D;54116;53.518;49.398;2022-10-04T19:33:35;9.74;69.75
67186;HTU21D;54116;53.518;49.398;2022-10-04T19:36:20;9.94;65.46
67186;HTU21D;54116;53.518;49.398;2022-10-04T19:39:02;10.10;65.06
67186;HTU21D;54116;53.518;49.398;2022-10-04T19:41:45;10.10;66.26
67186;HTU21D;54116;53.518;49.398;2022-10-04T19:46:58;10.21;63.72
67186;HTU21D;54116;53.518;49.398;2022-10-04T19:49:55;10.22;63.74
67186;HTU21D;54116;53.518;49.398;2022-10-04T19:55:58;10.18;65.24
67186;HTU21D;54116;53.518;49.398;2022-10-04T20:00:39;10.08;66.48
67186;HTU21D;54116;53.518;49.398;2022-10-04T20:03:09;10.03;65.30
67186;HTU21D;54116;53.518;49.398;2022-10-04T20:05:45;10.03;66.04
67186;HTU21D;54116;53.518;49.398;2022-10-04T20:08:16;9.99;65.99
67186;HTU21D;54116;53.518;49.398;2022-10-04T20:11:20;9.98;67.70
67186;HTU21D;54116;53.518;49.398;2022-10-04T20:19:36;10.05;68.76
67186;HTU21D;54116;53.518;49.398;2022-10-04T20:34:56;9.95;68.92
67186;HTU21D;54116;53.518;49.398;2022-10-04T20:43:24;9.83;69.90
67186;HTU21D;54116;53.518;49.398;2022-10-04T20:45:52;9.84;69.58
67186;HTU21D;54116;53.518;49.398;2022-10-04T20:48:24;9.84;69.34
67186;HTU21D;54116;53.518;49.398;2022-10-04T20:50:51;9.88;70.20
67186;HTU21D;54116;53.518;49.398;2022-10-04T20:55:47;9.85;68.83
67186;HTU21D;54116;53.518;49.398;2022-10-04T21:00:58;10.09;64.50
67186;HTU21D;54116;53.518;49.398;2022-10-04T21:03:25;10.19;64.75
67186;HTU21D;54116;53.518;49.398;2022-10-04T21:08:26;10.37;61.47
67186;HTU21D;54116;53.518;49.398;2022-10-04T21:11:10;10.44;60.97
67186;HTU21D;54116;53.518;49.398;2022-10-04T21:16:40;10.57;59.73
67186;HTU21D;54116;53.518;49.398;2022-10-04T21:19:29;10.59;59.34
67186;HTU21D;54116;53.518;49.398;2022-10-04T21:21:56;10.59;60.33
67186;HTU21D;54116;53.518;49.398;2022-10-04T21:29:52;10.62;60.16
67186;HTU21D;54116;53.518;49.398;2022-10-04T21:32:19;10.59;61.01
67186;HTU21D;54116;53.518;49.398;2022-10-04T21:34:45;10.60;59.16
67186;HTU21D;54116;53.518;49.398;2022-10-04T21:37:11;10.60;57.90
67186;HTU21D;54116;53.518;49.398;2022-10-04T21:39:37;10.72;57.72
67186;HTU21D;54116;53.518;49.398;2022-10-04T21:42:04;10.74;59.09
67186;HTU21D;54116;53.518;49.398;2022-10-04T21:44:30;10.78;57.63
67186;HTU21D;54116;53.518;49.398;2022-10-04T21:46:56;10.78;58.17
67186;HTU21D;54116;53.518;49.398;2022-10-04T21:49:22;10.80;57.56
67186;HTU21D;54116;53.518;49.398;2022-10-04T21:51:48;10.79;58.70
67186;HTU21D;54116;53.518;49.398;2022-10-04T21:54:14;10.81;57.29
67186;HTU21D;54116;53.518;49.398;2022-10-04T21:56:40;10.82;57.33
67186;HTU21D;54116;53.518;49.398;2022-10-04T21:59:06;10.78;57.44
67186;HTU21D;54116;53.518;49.398;2022-10-04T22:01:33;10.78;57.80
67186;HTU21D;54116;53.518;49.398;2022-10-04T22:03:59;10.73;57.99
67186;HTU21D;54116;53.518;49.398;2022-10-04T22:06:25;10.72;57.67
67186;HTU21D;54116;53.518;49.398;2022-10-04T22:08:51;10.71;58.07
67186;HTU21D;54116;53.518;49.398;2022-10-04T22:11:17;10.71;58.47
67186;HTU21D;54116;53.518;49.398;2022-10-04T22:13:43;10.68;58.61
67186;HTU21D;54116;53.518;49.398;2022-10-04T22:16:11;10.67;59.90
67186;HTU21D;54116;53.518;49.398;2022-10-04T22:18:37;10.64;61.12
67186;HTU21D;54116;53.518;49.398;2022-10-04T22:21:06;10.60;60.93
67186;HTU21D;54116;53.518;49.398;2022-10-04T22:23:37;10.56;61.77
67186;HTU21D;54116;53.518;49.398;2022-10-04T22:26:12;10.51;62.65
67186;HTU21D;54116;53.518;49.398;2022-10-04T22:28:50;10.46;62.60
67186;HTU21D;54116;53.518;49.398;2022-10-04T22:31:18;10.44;62.44
67186;HTU21D;54116;53.518;49.398;2022-10-04T22:33:47;10.44;62.72
67186;HTU21D;54116;53.518;49.398;2022-10-04T22:36:21;10.42;63.04
67186;HTU21D;54116;53.518;49.398;2022-10-04T22:41:29;10.35;65.12
67186;HTU21D;54116;53.518;49.398;2022-10-04T22:43:57;10.30;65.73
67186;HTU21D;54116;53.518;49.398;2022-10-04T22:46:31;10.24;66.27
67186;HTU21D;54116;53.518;49.398;2022-10-04T22:48:58;10.18;68.50
67186;HTU21D;54116;53.518;49.398;2022-10-04T22:51:28;10.11;69.42
67186;HTU21D;54116;53.518;49.398;2022-10-04T22:53:54;10.04;69.39
67186;HTU21D;54116;53.518;49.398;2022-10-04T22:56:21;9.97;69.85
67186;HTU21D;54116;53.518;49.398;2022-10-04T22:58:47;9.99;70.94
67186;HTU21D;54116;53.518;49.398;2022-10-04T23:01:17;9.98;68.32
67186;HTU21D;54116;53.518;49.398;2022-10-04T23:03:45;9.99;68.71
67186;HTU21D;54116;53.518;49.398;2022-10-04T23:06:11;9.99;69.52
67186;HTU21D;54116;53.518;49.398;2022-10-04T23:08:40;9.93;72.15
67186;HTU21D;54116;53.518;49.398;2022-10-04T23:11:07;9.84;73.46
67186;HTU21D;54116;53.518;49.398;2022-10-04T23:13:33;9.71;74.73
67186;HTU21D;54116;53.518;49.398;2022-10-04T23:16:22;9.66;74.98
67186;HTU21D;54116;53.518;49.398;2022-10-04T23:18:48;9.57;75.80
67186;HTU21D;54116;53.518;49.398;2022-10-04T23:21:22;9.53;76.34
67186;HTU21D;54116;53.518;49.398;2022-10-04T23:23:50;9.44;79.17
67186;HTU21D;54116;53.518;49.398;2022-10-04T23:26:22;9.34;79.87
67186;HTU21D;54116;53.518;49.398;2022-10-04T23:28:50;9.23;82.26
67186;HTU21D;54116;53.518;49.398;2022-10-04T23:31:22;9.11;83.07
67186;HTU21D;54116;53.518;49.398;2022-10-04T23:33:50;9.03;84.29
67186;HTU21D;54116;53.518;49.398;2022-10-04T23:36:17;8.95;84.11
67186;HTU21D;54116;53.518;49.398;2022-10-04T23:38:55;8.91;84.87
67186;HTU21D;54116;53.518;49.398;2022-10-04T23:41:24;8.90;84.61
67186;HTU21D;54116;53.518;49.398;2022-10-04T23:43:50;8.87;84.51
67186;HTU21D;54116;53.518;49.398;2022-10-04T23:46:18;8.83;86.86
67186;HTU21D;54116;53.518;49.398;2022-10-04T23:48:47;8.83;85.88
67186;HTU21D;54116;53.518;49.398;2022-10-04T23:51:15;8.87;87.08
67186;HTU21D;54116;53.518;49.398;2022-10-04T23:53:44;8.87;85.55
67186;HTU21D;54116;53.518;49.398;2022-10-04T23:56:18;8.83;85.45
67186;HTU21D;54116;53.518;49.398;2022-10-04T23:58:45;8.86;84.16
